Página principal
METAR-TAF:

METAR-TAF

Aeroportos :

Aeroporto Internacional de El Alto

La Paz, Bolívia

latitude: 16-31S, longitude: 068-11W, altura: 4058 m

Observação actual do tempo

O boletim foi feito há 21 minutos, às 02:00 UTC
Vento 7 kt de es-nordeste
Temperatura 0°C
Humidade 51%
Pressão 1040 hPa
Visibilidade 10 km ou mais

METAR: SLLP 190200Z 07007KT 9999 NSC M00/M09 Q1040

Hora: 22:21 (02:21 UTC)

Previsão

O boletim foi feito há 4 horas e 21 minutos, às 22:00 UTC
Previsão válida de 19 às 00 UTC a 19 às 24 UTC
Vento 5 kt de este
Visibilidade 10 km ou mais
Poucas nuvensa uma altura de 1500 ft
Probabilidade 30% :
Temporariamente
de 19 às 07 UTC a 19 às 10 UTC
Visibilidade: 3000 m
Poucas nuvensa uma altura de 200 ft
bancos de nevoeiro
Tornando-se
de 19 às 14 UTC a 19 às 17 UTC
Vento 10 kt de nor-nordeste

TAF: SLLP 182200Z 1900/1924 09005KT 9999 FEW015 TX15/1919Z TNM07/1911Z PROB30 TEMPO 1907/1910 3000E BCFG FEW002 BECMG 1914/1917 03010KT

Observações e previsões do tempo de mais de 4000 aeroportos (mensagens METAR e TAF).

As estações disponíveis são os pontos amarelos e vermelhos sobre o mapa.

Mova o rato sobre o mapa para ver o nome da estação.

Depois clique no ponto para visualizar as observações e previsões meteorológicas.

Para alterar o mapa : clique nos botões verdes com uma cruz preta para aumentar o zoom; no botão verde com uma pitada de zoom; ou nas setas verdes para mapas adjacentes.


METAR-TAF: